createdAt,value
2017-03-14T00:00:15.322Z,6.22
2017-03-14T00:01:16.558Z,6.26
2017-03-14T00:02:17.804Z,6.18
2017-03-14T00:03:19.055Z,6.14
2017-03-14T00:04:20.402Z,6.22
2017-03-14T00:05:21.603Z,6.21
2017-03-14T00:06:22.818Z,6.18
2017-03-14T00:07:24.061Z,6.22
2017-03-14T00:08:25.305Z,6.16
2017-03-14T00:09:26.605Z,6.22
2017-03-14T00:10:27.860Z,6.22
2017-03-14T00:11:29.162Z,6.22
2017-03-14T00:12:30.397Z,6.21
2017-03-14T00:13:31.666Z,6.18
2017-03-14T00:14:32.901Z,6.22
2017-03-14T00:15:34.142Z,6.13
2017-03-14T00:16:35.387Z,6.14
2017-03-14T00:17:36.621Z,6.18
2017-03-14T00:18:37.860Z,6.18
2017-03-14T00:19:39.100Z,6.18
2017-03-14T00:20:40.356Z,6.21
2017-03-14T00:21:41.601Z,6.18
2017-03-14T00:22:42.848Z,6.03
2017-03-14T00:23:44.221Z,6.04
2017-03-14T00:24:45.471Z,6.06
2017-03-14T00:25:46.696Z,6.09
2017-03-14T00:26:47.934Z,6.1
2017-03-14T00:27:49.306Z,6.16
2017-03-14T00:28:50.621Z,6.06
2017-03-14T00:29:51.883Z,6.09
2017-03-14T00:30:53.124Z,6.06
2017-03-14T00:31:54.357Z,6.14
2017-03-14T00:32:55.639Z,6.13
2017-03-14T00:33:56.898Z,6.11
2017-03-14T00:34:58.111Z,6.07
2017-03-14T00:35:59.349Z,6.11
2017-03-14T00:37:00.582Z,6.06
2017-03-14T00:38:01.814Z,6.1
2017-03-14T00:39:03.090Z,6.04
2017-03-14T00:40:04.342Z,6.07
2017-03-14T00:41:05.706Z,6.11
2017-03-14T00:42:06.937Z,6.06
2017-03-14T00:43:08.185Z,6.04
2017-03-14T00:44:09.439Z,6.06
2017-03-14T00:45:10.659Z,6
2017-03-14T00:46:11.901Z,6.1
2017-03-14T00:47:13.147Z,6.04
2017-03-14T00:48:14.394Z,6.09
2017-03-14T00:49:15.669Z,6.09
2017-03-14T00:50:16.956Z,6.06
2017-03-14T00:51:18.214Z,6.04
2017-03-14T00:52:19.539Z,6.1
2017-03-14T00:53:20.826Z,6.07
2017-03-14T00:54:22.131Z,6.1
2017-03-14T00:55:23.391Z,6.07
2017-03-14T00:56:24.624Z,6.04
2017-03-14T00:57:25.857Z,6.07
2017-03-14T00:58:27.120Z,6.03
2017-03-14T00:59:28.361Z,6.01
2017-03-14T01:00:29.602Z,6.11
2017-03-14T01:01:30.945Z,6.07
2017-03-14T01:02:32.177Z,6.06
2017-03-14T01:03:33.397Z,6.13
2017-03-14T01:04:34.631Z,6.13
2017-03-14T01:05:35.929Z,6.07
2017-03-14T01:06:37.222Z,6.07
2017-03-14T01:07:38.463Z,6.06
2017-03-14T01:08:39.704Z,6.06
2017-03-14T01:09:40.938Z,6.1
2017-03-14T01:10:42.183Z,6.1
2017-03-14T01:11:43.447Z,6.13
2017-03-14T01:12:44.687Z,6.07
2017-03-14T01:13:45.985Z,6.06
2017-03-14T01:14:47.227Z,6.09
2017-03-14T01:15:48.470Z,6.07
2017-03-14T01:16:49.704Z,5.98
2017-03-14T01:17:50.960Z,6.06
2017-03-14T01:18:52.202Z,6.06
2017-03-14T01:19:53.451Z,6.03
2017-03-14T01:20:54.781Z,6.03
2017-03-14T01:21:56.019Z,6.09
2017-03-14T01:22:57.382Z,6.07
2017-03-14T01:23:58.624Z,6.03
2017-03-14T01:24:59.962Z,6.04
2017-03-14T01:26:01.276Z,6.04
2017-03-14T01:27:02.569Z,6.1
2017-03-14T01:28:03.798Z,6.06
2017-03-14T01:29:05.037Z,5.98
2017-03-14T01:30:06.294Z,5.98
2017-03-14T01:31:07.559Z,6.09
2017-03-14T01:32:08.825Z,6.1
2017-03-14T01:33:10.060Z,6.04
2017-03-14T01:34:11.396Z,6.04
2017-03-14T01:35:12.639Z,6
2017-03-14T01:36:13.890Z,6
2017-03-14T01:37:15.254Z,6
2017-03-14T01:38:16.500Z,6.01
2017-03-14T01:39:17.795Z,6.06
2017-03-14T01:40:19.008Z,6.06
2017-03-14T01:41:20.277Z,6.09
2017-03-14T01:42:21.512Z,6.09
2017-03-14T01:43:22.766Z,5.96
2017-03-14T01:44:24.013Z,6.01
2017-03-14T01:45:25.304Z,5.98
2017-03-14T01:46:26.558Z,6.01
2017-03-14T01:47:27.771Z,5.95
2017-03-14T01:48:29.013Z,5.96
2017-03-14T01:49:30.264Z,6.01
2017-03-14T01:50:31.491Z,5.98
2017-03-14T01:51:32.741Z,5.92
2017-03-14T01:52:33.978Z,5.95
2017-03-14T01:53:35.259Z,5.95
2017-03-14T01:54:36.472Z,6
2017-03-14T01:55:37.781Z,6
2017-03-14T01:56:39.176Z,6
2017-03-14T01:57:40.431Z,6.06
2017-03-14T01:58:41.677Z,6.03
2017-03-14T01:59:42.923Z,6.07
2017-03-14T02:00:44.171Z,6.06
2017-03-14T02:01:45.405Z,6.06
2017-03-14T02:02:46.746Z,6.11
2017-03-14T02:03:47.977Z,6.04
2017-03-14T02:04:49.214Z,6.11
2017-03-14T02:05:50.475Z,6.11
2017-03-14T02:06:51.707Z,6.04
2017-03-14T02:07:53.040Z,6.03
2017-03-14T02:08:54.270Z,6.06
2017-03-14T02:09:55.570Z,6.04
2017-03-14T02:10:56.823Z,6.06
2017-03-14T02:11:58.059Z,6
2017-03-14T02:12:59.293Z,6.06
2017-03-14T02:14:00.526Z,5.96
2017-03-14T02:15:01.771Z,5.95
2017-03-14T02:16:03.156Z,5.96
2017-03-14T02:17:04.412Z,6.06
2017-03-14T02:18:05.634Z,6.03
2017-03-14T02:19:06.863Z,6.01
2017-03-14T02:20:08.102Z,5.98
2017-03-14T02:21:09.341Z,6.04
2017-03-14T02:22:10.610Z,6.01
2017-03-14T02:23:11.865Z,6.03
2017-03-14T02:24:13.084Z,5.96
2017-03-14T02:25:14.313Z,5.98
2017-03-14T02:26:15.548Z,5.89
2017-03-14T02:27:16.785Z,5.91
2017-03-14T02:28:18.057Z,5.98
2017-03-14T02:29:19.290Z,6.01
2017-03-14T02:30:20.540Z,5.93
2017-03-14T02:31:21.756Z,5.91
2017-03-14T02:32:22.988Z,5.85
2017-03-14T02:33:24.224Z,5.86
2017-03-14T02:34:25.451Z,5.89
2017-03-14T02:35:26.708Z,5.92
2017-03-14T02:36:27.988Z,5.95
2017-03-14T02:37:29.221Z,5.89
2017-03-14T02:38:30.458Z,5.85
2017-03-14T02:39:31.733Z,5.92
2017-03-14T02:40:32.985Z,5.88
2017-03-14T02:41:34.222Z,5.89
2017-03-14T02:42:35.538Z,5.88
2017-03-14T02:43:36.814Z,5.82
2017-03-14T02:44:38.039Z,5.88
2017-03-14T02:45:39.258Z,5.89
2017-03-14T02:46:40.475Z,5.86
2017-03-14T02:47:41.710Z,5.85
2017-03-14T02:48:43.007Z,5.86
2017-03-14T02:49:44.242Z,5.88
2017-03-14T02:50:45.577Z,5.86
2017-03-14T02:51:46.811Z,5.88
2017-03-14T02:52:48.040Z,5.86
2017-03-14T02:53:49.280Z,5.86
2017-03-14T02:54:50.583Z,5.82
2017-03-14T02:55:51.822Z,5.83
2017-03-14T02:56:53.083Z,5.92
2017-03-14T02:57:54.327Z,5.85
2017-03-14T02:58:55.582Z,5.81
2017-03-14T02:59:56.814Z,5.82
2017-03-14T03:00:58.062Z,5.82
2017-03-14T03:01:59.310Z,5.81
2017-03-14T03:03:00.542Z,5.67
2017-03-14T03:04:01.775Z,5.7
2017-03-14T03:05:03.009Z,5.66
2017-03-14T03:06:04.263Z,5.68
2017-03-14T03:07:05.489Z,5.67
2017-03-14T03:08:06.834Z,5.57
2017-03-14T03:09:08.074Z,5.59
2017-03-14T03:10:09.321Z,5.52
2017-03-14T03:11:10.560Z,5.46
2017-03-14T03:12:11.796Z,5.49
2017-03-14T03:13:13.047Z,5.45
2017-03-14T03:14:14.304Z,5.49
2017-03-14T03:15:15.564Z,5.52
2017-03-14T03:16:16.829Z,5.46
2017-03-14T03:17:18.108Z,5.43
2017-03-14T03:18:19.345Z,5.46
2017-03-14T03:19:20.564Z,5.4
2017-03-14T03:20:21.829Z,5.45
2017-03-14T03:21:23.082Z,5.38
2017-03-14T03:22:24.304Z,5.43
2017-03-14T03:23:25.548Z,5.46
2017-03-14T03:24:26.779Z,5.48
2017-03-14T03:25:28.012Z,5.4
2017-03-14T03:26:29.278Z,5.49
2017-03-14T03:27:30.572Z,5.43
2017-03-14T03:28:31.909Z,5.4
2017-03-14T03:29:33.198Z,5.41
2017-03-14T03:30:34.439Z,5.48
2017-03-14T03:31:35.666Z,5.45
2017-03-14T03:32:37.036Z,5.45
2017-03-14T03:33:38.284Z,5.52
2017-03-14T03:34:39.541Z,5.48
2017-03-14T03:35:40.782Z,5.49
2017-03-14T03:36:42.013Z,5.49
2017-03-14T03:37:43.345Z,5.56
2017-03-14T03:38:44.543Z,5.59
2017-03-14T03:39:45.764Z,5.56
2017-03-14T03:40:47.102Z,5.48
2017-03-14T03:41:48.331Z,5.43
2017-03-14T03:42:49.580Z,5.57
2017-03-14T03:43:50.847Z,5.56
2017-03-14T03:44:52.078Z,5.6
2017-03-14T03:45:53.312Z,5.57
2017-03-14T03:46:54.650Z,5.59
2017-03-14T03:47:55.897Z,5.59
2017-03-14T03:48:57.130Z,5.66
2017-03-14T03:49:58.357Z,5.6
2017-03-14T03:50:59.606Z,5.59
2017-03-14T03:52:00.839Z,5.67
2017-03-14T03:53:02.085Z,5.59
2017-03-14T03:54:03.315Z,5.73
2017-03-14T03:55:04.578Z,5.74
2017-03-14T03:56:05.807Z,5.71
2017-03-14T03:57:07.047Z,5.67
2017-03-14T03:58:08.309Z,5.7
2017-03-14T03:59:09.624Z,5.73
2017-03-14T04:00:10.926Z,5.66
2017-03-14T04:01:12.150Z,5.68
2017-03-14T04:02:13.401Z,5.67
2017-03-14T04:03:14.640Z,5.75
2017-03-14T04:04:15.891Z,5.75
2017-03-14T04:05:17.200Z,5.78
2017-03-14T04:06:18.407Z,5.73
2017-03-14T04:07:19.646Z,5.68
2017-03-14T04:08:20.884Z,5.77
2017-03-14T04:09:22.118Z,5.78
2017-03-14T04:10:23.365Z,5.74
2017-03-14T04:11:24.619Z,5.77
2017-03-14T04:12:25.895Z,5.75
2017-03-14T04:13:27.136Z,5.75
2017-03-14T04:14:28.371Z,5.83
2017-03-14T04:15:29.639Z,5.75
2017-03-14T04:16:30.859Z,5.78
2017-03-14T04:17:32.095Z,5.78
2017-03-14T04:18:33.365Z,5.85
2017-03-14T04:19:34.596Z,5.83
2017-03-14T04:20:35.856Z,5.88
2017-03-14T04:21:37.093Z,5.86
2017-03-14T04:22:38.332Z,6
2017-03-14T04:23:39.584Z,6
2017-03-14T04:24:40.832Z,5.92
2017-03-14T04:25:42.183Z,5.92
2017-03-14T04:26:43.497Z,5.98
2017-03-14T04:27:44.731Z,6.06
2017-03-14T04:28:45.962Z,6.09
2017-03-14T04:29:47.253Z,6.1
2017-03-14T04:30:48.530Z,6.07
2017-03-14T04:31:49.745Z,6.03
2017-03-14T04:32:50.982Z,6.06
2017-03-14T04:33:52.219Z,6.06
2017-03-14T04:34:53.456Z,6.06
2017-03-14T04:35:54.716Z,6.13
2017-03-14T04:36:55.977Z,6.16
2017-03-14T04:37:57.303Z,6.1
2017-03-14T04:38:58.576Z,6.16
2017-03-14T04:39:59.845Z,6.13
2017-03-14T04:41:01.060Z,6.18
2017-03-14T04:42:02.331Z,6.11
2017-03-14T04:43:03.586Z,6.16
2017-03-14T04:44:04.835Z,6.19
2017-03-14T04:45:06.080Z,6.22
2017-03-14T04:46:07.364Z,6.14
2017-03-14T04:47:08.681Z,6.11
2017-03-14T04:48:09.885Z,6.19
2017-03-14T04:49:11.122Z,6.09
2017-03-14T04:50:12.357Z,6.19
2017-03-14T04:51:13.617Z,6.18
2017-03-14T04:52:15.025Z,6.13
2017-03-14T04:53:16.250Z,6.13
2017-03-14T04:54:17.472Z,6.04
2017-03-14T04:55:18.713Z,6.07
2017-03-14T04:56:19.957Z,6.04
2017-03-14T04:57:21.200Z,6
2017-03-14T04:58:22.444Z,5.95
2017-03-14T04:59:23.698Z,6
2017-03-14T05:00:24.954Z,5.93
2017-03-14T05:01:26.173Z,5.98
2017-03-14T05:02:27.485Z,5.96
2017-03-14T05:03:28.771Z,6
2017-03-14T05:04:30.021Z,5.86
2017-03-14T05:05:31.427Z,5.92
2017-03-14T05:06:32.642Z,5.81
2017-03-14T05:07:33.887Z,5.82
2017-03-14T05:08:35.176Z,5.89
2017-03-14T05:09:36.400Z,5.78
2017-03-14T05:10:37.638Z,5.78
2017-03-14T05:11:39.017Z,5.74
2017-03-14T05:12:40.227Z,5.81
2017-03-14T05:13:41.500Z,5.75
2017-03-14T05:14:42.739Z,5.77
2017-03-14T05:15:43.973Z,5.78
2017-03-14T05:16:45.355Z,5.78
2017-03-14T05:17:46.637Z,5.75
2017-03-14T05:18:47.864Z,5.64
2017-03-14T05:19:49.103Z,5.73
2017-03-14T05:20:50.343Z,5.7
2017-03-14T05:21:51.590Z,5.75
2017-03-14T05:22:52.838Z,5.73
2017-03-14T05:23:54.253Z,5.71
2017-03-14T05:24:55.516Z,5.71
2017-03-14T05:25:56.739Z,5.68
2017-03-14T05:26:57.976Z,5.7
2017-03-14T05:27:59.215Z,5.7
2017-03-14T05:29:00.488Z,5.71
2017-03-14T05:30:01.733Z,5.7
2017-03-14T05:31:02.967Z,5.77
2017-03-14T05:32:04.203Z,5.74
2017-03-14T05:33:05.462Z,5.75
2017-03-14T05:34:06.703Z,5.78
2017-03-14T05:35:08.102Z,5.78
2017-03-14T05:36:09.338Z,5.81
2017-03-14T05:37:10.729Z,5.82
2017-03-14T05:38:11.856Z,5.86
2017-03-14T05:39:13.093Z,5.85
2017-03-14T05:40:14.371Z,5.86
2017-03-14T05:41:15.635Z,5.78
2017-03-14T05:42:16.908Z,5.81
2017-03-14T05:43:18.141Z,5.77
2017-03-14T05:44:19.406Z,5.75
2017-03-14T05:45:20.656Z,5.75
2017-03-14T05:46:21.870Z,5.82
2017-03-14T05:47:23.179Z,5.78
2017-03-14T05:48:24.421Z,5.75
2017-03-14T05:49:25.687Z,5.85
2017-03-14T05:50:26.945Z,5.78
2017-03-14T05:51:28.183Z,5.81
2017-03-14T05:52:29.430Z,5.85
2017-03-14T05:53:30.657Z,5.82
2017-03-14T05:54:31.902Z,5.83
2017-03-14T05:55:33.169Z,5.88
2017-03-14T05:56:34.392Z,5.89
2017-03-14T05:57:35.670Z,6
2017-03-14T05:58:36.882Z,5.96
2017-03-14T05:59:38.123Z,5.92
2017-03-14T06:00:39.360Z,5.98
2017-03-14T06:01:40.625Z,5.95
2017-03-14T06:02:41.952Z,5.95
2017-03-14T06:03:43.192Z,5.92
2017-03-14T06:04:44.420Z,6.01
2017-03-14T06:05:45.733Z,5.93
2017-03-14T06:06:47.035Z,6.03
2017-03-14T06:07:48.259Z,6.03
2017-03-14T06:08:49.537Z,5.98
2017-03-14T06:09:50.769Z,5.98
2017-03-14T06:10:52.012Z,6.03
2017-03-14T06:11:53.247Z,6.09
2017-03-14T06:12:54.483Z,6.07
2017-03-14T06:13:55.723Z,6.03
2017-03-14T06:14:57.122Z,6.1
2017-03-14T06:15:58.349Z,6.06
2017-03-14T06:16:59.583Z,6.07
2017-03-14T06:18:00.826Z,6.04
2017-03-14T06:19:02.081Z,6.07
2017-03-14T06:20:03.408Z,6.14
2017-03-14T06:21:04.645Z,6.04
2017-03-14T06:22:05.902Z,6.06
2017-03-14T06:23:07.139Z,6.18
2017-03-14T06:24:08.383Z,6.14
2017-03-14T06:25:09.623Z,6.1
2017-03-14T06:26:10.871Z,6.18
2017-03-14T06:27:12.158Z,6.18
2017-03-14T06:28:13.404Z,6.13
2017-03-14T06:29:14.707Z,6.26
2017-03-14T06:30:15.880Z,6.11
2017-03-14T06:31:17.142Z,6.18
2017-03-14T06:32:18.340Z,6.14
2017-03-14T06:33:19.606Z,6.19
2017-03-14T06:34:20.834Z,6.18
2017-03-14T06:35:22.169Z,6.22
2017-03-14T06:36:23.401Z,6.16
2017-03-14T06:37:24.642Z,6.21
2017-03-14T06:38:25.913Z,6.25
2017-03-14T06:39:27.218Z,6.3
2017-03-14T06:40:28.457Z,6.22
2017-03-14T06:41:29.711Z,6.3
2017-03-14T06:42:30.949Z,6.21
2017-03-14T06:43:32.179Z,6.28
2017-03-14T06:44:33.443Z,6.32
2017-03-14T06:45:34.674Z,6.32
2017-03-14T06:46:36.140Z,6.29
2017-03-14T06:47:37.406Z,6.29
2017-03-14T06:48:38.629Z,6.26
2017-03-14T06:49:39.874Z,6.29
2017-03-14T06:50:41.255Z,6.3
2017-03-14T06:51:42.497Z,6.38
2017-03-14T06:52:43.779Z,6.4
2017-03-14T06:53:45.029Z,6.44
2017-03-14T06:54:46.265Z,6.46
2017-03-14T06:55:47.636Z,6.44
2017-03-14T06:56:48.924Z,6.62
2017-03-14T06:57:50.182Z,6.56
2017-03-14T06:58:51.469Z,6.53
2017-03-14T06:59:52.738Z,6.69
2017-03-14T07:00:53.989Z,6.72
2017-03-14T07:01:55.269Z,6.72
2017-03-14T07:02:56.509Z,6.86
2017-03-14T07:03:57.836Z,7.04
2017-03-14T07:04:59.095Z,7.08
2017-03-14T07:06:00.324Z,7.2
2017-03-14T07:07:01.626Z,7.37
2017-03-14T07:08:03.046Z,7.35
2017-03-14T07:09:04.316Z,7.59
2017-03-14T07:10:05.526Z,7.74
2017-03-14T07:11:06.854Z,7.81
2017-03-14T07:12:08.091Z,7.82
2017-03-14T07:13:09.333Z,7.85
2017-03-14T07:14:10.576Z,7.69
2017-03-14T07:15:11.823Z,7.71
2017-03-14T07:16:13.047Z,7.77
2017-03-14T07:17:14.286Z,7.84
2017-03-14T07:18:15.525Z,7.99
2017-03-14T07:19:16.765Z,8.07
2017-03-14T07:20:17.998Z,8.1
2017-03-14T07:21:19.357Z,8.08
2017-03-14T07:22:20.594Z,8.17
2017-03-14T07:23:21.901Z,8.32
2017-03-14T07:24:23.217Z,8.42
2017-03-14T07:25:24.465Z,8.47
2017-03-14T07:26:25.754Z,8.71
2017-03-14T07:27:27.086Z,8.87
2017-03-14T07:28:28.327Z,9.12
2017-03-14T07:29:29.582Z,9.48
2017-03-14T07:30:30.829Z,9.88
2017-03-14T07:31:32.082Z,10.34
2017-03-14T07:32:33.314Z,10.44
2017-03-14T07:33:34.560Z,10.91
2017-03-14T07:34:35.812Z,11.27
2017-03-14T07:35:37.234Z,11.87
2017-03-14T07:36:38.563Z,12.49
2017-03-14T07:37:39.803Z,12.71
2017-03-14T07:38:41.045Z,12.85
2017-03-14T07:39:42.294Z,12.82
2017-03-14T07:40:43.534Z,12.67
2017-03-14T07:41:44.785Z,12.54
2017-03-14T07:42:46.039Z,12.38
2017-03-14T07:43:47.277Z,11.99
2017-03-14T07:44:48.503Z,11.64
2017-03-14T07:45:49.778Z,11.44
2017-03-14T07:46:51.014Z,11.27
2017-03-14T07:47:52.298Z,10.95
2017-03-14T07:48:53.515Z,10.62
2017-03-14T07:49:54.772Z,10.4
2017-03-14T07:50:56.004Z,10.26
2017-03-14T07:51:57.302Z,10
2017-03-14T07:52:58.558Z,9.89
2017-03-14T07:53:59.811Z,9.76
2017-03-14T07:55:01.075Z,9.5
2017-03-14T07:56:02.347Z,9.4
2017-03-14T07:57:03.563Z,9.28
2017-03-14T07:58:04.798Z,9.23
2017-03-14T07:59:06.047Z,9.12
2017-03-14T08:00:07.315Z,9.13
2017-03-14T08:01:08.556Z,9.16
2017-03-14T08:02:09.877Z,8.94
2017-03-14T08:03:11.134Z,8.97
2017-03-14T08:04:12.366Z,8.97
2017-03-14T08:05:13.608Z,9.01
2017-03-14T08:06:14.846Z,8.88
2017-03-14T08:07:16.100Z,8.86
2017-03-14T08:08:17.569Z,8.91
2017-03-14T08:09:18.794Z,8.99
2017-03-14T08:10:20.051Z,8.99
2017-03-14T08:11:21.284Z,8.93
2017-03-14T08:12:22.531Z,8.83
2017-03-14T08:13:23.876Z,8.78
2017-03-14T08:14:25.115Z,8.88
2017-03-14T08:15:26.379Z,8.86
2017-03-14T08:16:27.639Z,8.86
2017-03-14T08:17:28.882Z,8.87
2017-03-14T08:18:30.213Z,8.87
2017-03-14T08:19:31.469Z,8.87
2017-03-14T08:20:32.716Z,8.86
2017-03-14T08:21:33.974Z,8.88
2017-03-14T08:22:35.215Z,8.93
2017-03-14T08:23:36.428Z,8.94
2017-03-14T08:24:37.812Z,9.12
2017-03-14T08:25:39.054Z,9.18
2017-03-14T08:26:40.382Z,9.24
2017-03-14T08:27:41.617Z,9.3
2017-03-14T08:28:42.858Z,9.4
2017-03-14T08:29:44.114Z,9.43
2017-03-14T08:30:45.443Z,9.43
2017-03-14T08:31:46.645Z,9.46
2017-03-14T08:32:47.881Z,9.53
2017-03-14T08:33:49.184Z,9.6
2017-03-14T08:34:50.438Z,9.63
2017-03-14T08:35:51.705Z,9.71
2017-03-14T08:36:52.925Z,9.76
2017-03-14T08:37:54.179Z,9.83
2017-03-14T08:38:55.500Z,9.71
2017-03-14T08:39:56.680Z,9.73
2017-03-14T08:40:57.932Z,9.93
2017-03-14T08:41:59.236Z,9.85
2017-03-14T08:43:00.472Z,9.81
2017-03-14T08:44:01.811Z,9.88
2017-03-14T08:45:03.055Z,9.79
2017-03-14T08:46:04.343Z,9.83
2017-03-14T08:47:05.582Z,9.83
2017-03-14T08:48:06.819Z,9.85
2017-03-14T08:49:08.085Z,9.85
2017-03-14T08:50:09.317Z,9.91
2017-03-14T08:51:10.556Z,9.83
2017-03-14T08:52:11.860Z,9.91
2017-03-14T08:53:13.139Z,9.81
2017-03-14T08:54:14.381Z,9.91
2017-03-14T08:55:15.667Z,9.86
2017-03-14T08:56:16.891Z,9.89
2017-03-14T08:57:18.139Z,9.88
2017-03-14T08:58:19.419Z,9.88
2017-03-14T08:59:20.656Z,9.88
2017-03-14T09:00:22.019Z,9.86
2017-03-14T09:01:23.262Z,9.85
2017-03-14T09:02:24.497Z,9.85
2017-03-14T09:03:25.755Z,9.88
2017-03-14T09:04:26.996Z,9.83
2017-03-14T09:05:28.259Z,9.93
2017-03-14T09:06:29.504Z,9.86
2017-03-14T09:07:30.738Z,9.89
2017-03-14T09:08:31.976Z,9.93
2017-03-14T09:09:33.213Z,9.96
2017-03-14T09:10:34.449Z,9.96
2017-03-14T09:11:35.762Z,10.04
2017-03-14T09:12:37.010Z,10.1
2017-03-14T09:13:38.238Z,10.1
2017-03-14T09:14:39.472Z,10.1
2017-03-14T09:15:40.754Z,10.12
2017-03-14T09:16:42.001Z,10.21
2017-03-14T09:17:43.345Z,10.18
2017-03-14T09:18:44.571Z,10.19
2017-03-14T09:19:45.891Z,10.19
2017-03-14T09:20:47.128Z,10.24
2017-03-14T09:21:48.374Z,10.18
2017-03-14T09:22:49.688Z,10.28
2017-03-14T09:23:50.971Z,10.3
2017-03-14T09:24:52.205Z,10.37
2017-03-14T09:25:53.449Z,10.18
2017-03-14T09:26:54.689Z,10.21
2017-03-14T09:27:55.932Z,10.25
2017-03-14T09:28:57.225Z,10.34
2017-03-14T09:29:58.455Z,10.42
2017-03-14T09:30:59.762Z,10.56
2017-03-14T09:32:00.999Z,10.66
2017-03-14T09:33:02.243Z,10.86
2017-03-14T09:34:03.489Z,10.94
2017-03-14T09:35:04.728Z,11.09
2017-03-14T09:36:05.994Z,11.44
2017-03-14T09:37:07.377Z,11.75
2017-03-14T09:38:08.635Z,12.33
2017-03-14T09:39:09.877Z,12.6
2017-03-14T09:40:11.099Z,12.79
2017-03-14T09:41:12.339Z,13.15
2017-03-14T09:42:13.692Z,13.47
2017-03-14T09:43:14.937Z,13.81
2017-03-14T09:44:16.185Z,14.14
2017-03-14T09:45:17.412Z,14.6
2017-03-14T09:46:18.661Z,15.11
2017-03-14T09:47:19.954Z,15.41
2017-03-14T09:48:21.211Z,15.84
2017-03-14T09:49:22.469Z,16.23
2017-03-14T09:50:23.723Z,16.92
2017-03-14T09:51:24.968Z,17.35
2017-03-14T09:52:26.207Z,17.57
2017-03-14T09:53:27.496Z,17.85
2017-03-14T09:54:28.737Z,18.27
2017-03-14T09:55:30.002Z,18.68
2017-03-14T09:56:31.340Z,19.08
2017-03-14T09:57:32.728Z,19.33
2017-03-14T09:58:33.985Z,19.6
2017-03-14T09:59:35.199Z,20.1
2017-03-14T10:00:36.453Z,20.65
2017-03-14T10:01:37.700Z,20.8
2017-03-14T10:02:39.016Z,21.09
2017-03-14T10:03:40.218Z,21.21
2017-03-14T10:04:41.467Z,21.42
2017-03-14T10:05:42.711Z,21.53
2017-03-14T10:06:44.154Z,21.75
2017-03-14T10:07:45.516Z,21.78
2017-03-14T10:08:46.766Z,21.76
2017-03-14T10:09:47.998Z,21.53
2017-03-14T10:10:49.249Z,21.26
2017-03-14T10:11:50.499Z,21.27
2017-03-14T10:12:51.893Z,21.34
2017-03-14T10:13:53.201Z,21.44
2017-03-14T10:14:54.434Z,21.79
2017-03-14T10:15:55.686Z,22.13
2017-03-14T10:16:56.940Z,22.28
2017-03-14T10:17:58.197Z,22.27
2017-03-14T10:18:59.467Z,22.16
2017-03-14T10:20:00.715Z,22.19
2017-03-14T10:21:02.069Z,22.04
2017-03-14T10:22:03.334Z,21.74
2017-03-14T10:23:04.587Z,21.67
2017-03-14T10:24:05.862Z,21.21
2017-03-14T10:25:07.103Z,21.01
2017-03-14T10:26:08.418Z,20.81
2017-03-14T10:27:09.672Z,20.66
2017-03-14T10:28:10.924Z,20.31
2017-03-14T10:29:12.170Z,19.91
2017-03-14T10:30:13.458Z,20.1
2017-03-14T10:31:14.778Z,20.46
2017-03-14T10:32:16.025Z,20.76
2017-03-14T10:33:17.276Z,21.19
2017-03-14T10:34:18.532Z,21.23
2017-03-14T10:35:19.790Z,20.96
2017-03-14T10:36:21.045Z,21.21
2017-03-14T10:37:22.302Z,21.24
2017-03-14T10:38:23.554Z,21.41
2017-03-14T10:39:24.831Z,21.5
2017-03-14T10:40:26.089Z,21.57
2017-03-14T10:41:27.319Z,21.71
2017-03-14T10:42:28.573Z,21.72
2017-03-14T10:43:29.817Z,21.67
2017-03-14T10:44:31.076Z,21.23
2017-03-14T10:45:32.425Z,20.91
2017-03-14T10:46:33.685Z,20.53
2017-03-14T10:47:34.936Z,20.24
2017-03-14T10:48:36.192Z,20.13
2017-03-14T10:49:37.553Z,20.16
2017-03-14T10:50:38.811Z,20.1
2017-03-14T10:51:40.073Z,19.7
2017-03-14T10:52:41.322Z,19.35
2017-03-14T10:53:42.577Z,18.79
2017-03-14T10:54:43.829Z,18.55
2017-03-14T10:55:45.169Z,18.28
2017-03-14T10:56:46.428Z,18.31
2017-03-14T10:57:47.691Z,18.4
2017-03-14T10:58:48.941Z,18.07
2017-03-14T10:59:50.213Z,17.92
2017-03-14T11:00:51.454Z,17.87
2017-03-14T11:01:52.703Z,17.62
2017-03-14T11:02:53.992Z,17.26
2017-03-14T11:03:55.423Z,17.11
2017-03-14T11:04:56.683Z,16.95
2017-03-14T11:05:57.928Z,16.88
2017-03-14T11:06:59.179Z,16.88
2017-03-14T11:08:00.456Z,16.86
2017-03-14T11:09:01.738Z,16.58
2017-03-14T11:10:02.986Z,16.5
2017-03-14T11:11:04.251Z,16.09
2017-03-14T11:12:05.491Z,15.89
2017-03-14T11:13:06.733Z,15.63
2017-03-14T11:14:07.975Z,15.68
2017-03-14T11:15:09.307Z,15.6
2017-03-14T11:16:10.514Z,15.48
2017-03-14T11:17:11.783Z,15.46
2017-03-14T11:18:13.030Z,15.33
2017-03-14T11:19:14.273Z,15.2
2017-03-14T11:20:15.524Z,15.28
2017-03-14T11:21:16.763Z,15.26
2017-03-14T11:22:18.047Z,15.38
2017-03-14T11:23:19.305Z,15.39
2017-03-14T11:24:20.598Z,15.41
2017-03-14T11:25:21.831Z,15.41
2017-03-14T11:26:23.066Z,15.41
2017-03-14T11:27:24.304Z,15.35
2017-03-14T11:28:25.557Z,15.35
2017-03-14T11:29:26.824Z,15.36
2017-03-14T11:30:28.060Z,15.3
2017-03-14T11:31:29.301Z,15.46
2017-03-14T11:32:30.554Z,15.45
2017-03-14T11:33:31.909Z,15.66
2017-03-14T11:34:33.186Z,15.84
2017-03-14T11:35:34.435Z,15.96
2017-03-14T11:36:35.693Z,16.12
2017-03-14T11:37:36.956Z,16.25
2017-03-14T11:38:38.180Z,16.35
2017-03-14T11:39:39.425Z,16.38
2017-03-14T11:40:40.668Z,16.34
2017-03-14T11:41:41.903Z,16.5
2017-03-14T11:42:43.145Z,16.6
2017-03-14T11:43:44.384Z,16.83
2017-03-14T11:44:45.637Z,16.85
2017-03-14T11:45:46.884Z,16.92
2017-03-14T11:46:48.137Z,16.85
2017-03-14T11:47:49.418Z,16.89
2017-03-14T11:48:50.662Z,17.04
2017-03-14T11:49:51.920Z,17.07
2017-03-14T11:50:53.186Z,17.1
2017-03-14T11:51:54.412Z,17.25
2017-03-14T11:52:55.745Z,17.4
2017-03-14T11:53:56.992Z,17.59
2017-03-14T11:54:58.258Z,17.57
2017-03-14T11:55:59.531Z,17.43
2017-03-14T11:57:00.768Z,17.29
2017-03-14T11:58:02.129Z,17.46
2017-03-14T11:59:03.510Z,17.51
2017-03-14T12:00:04.753Z,17.5
2017-03-14T12:01:06.009Z,17.41
2017-03-14T12:02:07.256Z,17.48
2017-03-14T12:03:08.499Z,17.47
2017-03-14T12:04:09.847Z,17.62
2017-03-14T12:05:11.128Z,17.67
2017-03-14T12:06:12.396Z,17.76
2017-03-14T12:07:13.662Z,17.78
2017-03-14T12:08:14.889Z,17.66
2017-03-14T12:09:16.191Z,17.59
2017-03-14T12:10:17.457Z,17.63
2017-03-14T12:11:18.700Z,17.44
2017-03-14T12:12:20.031Z,17.47
2017-03-14T12:13:21.297Z,17.48
2017-03-14T12:14:22.539Z,17.62
2017-03-14T12:15:23.807Z,17.43
2017-03-14T12:16:25.098Z,17.18
2017-03-14T12:17:26.338Z,17.1
2017-03-14T12:18:27.587Z,17.06
2017-03-14T12:19:28.839Z,17.18
2017-03-14T12:20:30.075Z,16.93
2017-03-14T12:21:31.324Z,16.96
2017-03-14T12:22:32.598Z,17.03
2017-03-14T12:23:33.843Z,17.06
2017-03-14T12:24:35.093Z,17.04
2017-03-14T12:25:36.335Z,17
2017-03-14T12:26:37.583Z,17.11
2017-03-14T12:27:38.829Z,17.06
2017-03-14T12:28:40.124Z,17.1
2017-03-14T12:29:41.363Z,17.11
2017-03-14T12:30:42.626Z,17.13
2017-03-14T12:31:43.937Z,17.18
2017-03-14T12:32:45.178Z,17.2
2017-03-14T12:33:46.415Z,17.04
2017-03-14T12:34:47.665Z,17.1
2017-03-14T12:35:48.919Z,17.15
2017-03-14T12:36:50.160Z,17.28
2017-03-14T12:37:51.407Z,17.38
2017-03-14T12:38:52.656Z,17.46
2017-03-14T12:39:53.963Z,17.47
2017-03-14T12:40:55.212Z,17.55
2017-03-14T12:41:56.452Z,17.48
2017-03-14T12:42:57.708Z,17.33
2017-03-14T12:43:58.952Z,17.3
2017-03-14T12:45:00.196Z,17.15
2017-03-14T12:46:01.445Z,17.1
2017-03-14T12:47:02.692Z,17.04
2017-03-14T12:48:04.066Z,17.18
2017-03-14T12:49:05.297Z,17.1
2017-03-14T12:50:06.567Z,17
2017-03-14T12:51:07.882Z,17.13
2017-03-14T12:52:09.118Z,17
2017-03-14T12:53:10.420Z,16.99
2017-03-14T12:54:11.665Z,16.96
2017-03-14T12:55:12.923Z,16.86
2017-03-14T12:56:14.163Z,16.83
2017-03-14T12:57:15.424Z,16.83
2017-03-14T12:58:16.701Z,16.81
2017-03-14T12:59:17.953Z,16.8
2017-03-14T13:00:19.210Z,16.7
2017-03-14T13:01:20.553Z,16.81
2017-03-14T13:02:21.800Z,16.92
2017-03-14T13:03:23.081Z,16.89
2017-03-14T13:04:24.330Z,16.7
2017-03-14T13:05:25.569Z,16.6
2017-03-14T13:06:26.816Z,16.53
2017-03-14T13:07:28.053Z,16.63
2017-03-14T13:08:29.394Z,16.58
2017-03-14T13:09:30.563Z,16.56
2017-03-14T13:10:31.810Z,16.49
2017-03-14T13:11:33.071Z,16.41
2017-03-14T13:12:34.310Z,16.48
2017-03-14T13:13:35.587Z,16.38
2017-03-14T13:14:36.803Z,16.49
2017-03-14T13:15:38.065Z,16.35
2017-03-14T13:16:39.290Z,16.42
2017-03-14T13:17:40.561Z,16.33
2017-03-14T13:18:41.922Z,16.37
2017-03-14T13:19:43.201Z,16.35
2017-03-14T13:20:44.424Z,16.35
2017-03-14T13:21:45.762Z,16.35
2017-03-14T13:22:47.000Z,16.25
2017-03-14T13:23:48.249Z,16.34
2017-03-14T13:24:49.500Z,16.23
2017-03-14T13:25:50.756Z,16.11
2017-03-14T13:26:51.995Z,15.99
2017-03-14T13:27:53.269Z,15.96
2017-03-14T13:28:54.511Z,15.92
2017-03-14T13:29:55.809Z,16.01